sensor_id;sensor_type;location;lat;lon;timestamp;pressure;altitude;pressure_sealevel;temperature;humidity
20612;BME280;10465;42.686;23.364;2023-01-25T00:00:43;96096.88;;;3.94;80.91
20612;BME280;10465;42.686;23.364;2023-01-25T00:03:08;96086.16;;;3.96;81.64
20612;BME280;10465;42.686;23.364;2023-01-25T00:05:34;96097.53;;;4.02;81.67
20612;BME280;10465;42.686;23.364;2023-01-25T00:07:59;96069.22;;;3.87;81.66
20612;BME280;10465;42.686;23.364;2023-01-25T00:10:25;96098.13;;;3.92;81.59
20612;BME280;10465;42.686;23.364;2023-01-25T00:12:50;96097.06;;;4.05;82.11
20612;BME280;10465;42.686;23.364;2023-01-25T00:15:16;96086.06;;;3.91;82.48
20612;BME280;10465;42.686;23.364;2023-01-25T00:17:41;96096.63;;;3.96;83.09
20612;BME280;10465;42.686;23.364;2023-01-25T00:20:08;96068.75;;;3.90;81.98
20612;BME280;10465;42.686;23.364;2023-01-25T00:22:33;96097.88;;;4.05;82.76
20612;BME280;10465;42.686;23.364;2023-01-25T00:24:59;96079.31;;;3.95;82.19
20612;BME280;10465;42.686;23.364;2023-01-25T00:27:24;96076.84;;;3.88;82.95
20612;BME280;10465;42.686;23.364;2023-01-25T00:29:50;96077.31;;;3.85;83.55
20612;BME280;10465;42.686;23.364;2023-01-25T00:34:45;96019.03;;;3.14;83.19
20612;BME280;10465;42.686;23.364;2023-01-25T00:37:19;96087.50;;;3.58;83.05
20612;BME280;10465;42.686;23.364;2023-01-25T00:39:47;96084.78;;;3.53;83.41
20612;BME280;10465;42.686;23.364;2023-01-25T00:42:15;96093.78;;;3.57;83.34
20612;BME280;10465;42.686;23.364;2023-01-25T00:44:40;96104.09;;;3.64;83.47
20612;BME280;10465;42.686;23.364;2023-01-25T00:47:06;96090.66;;;3.60;83.09
20612;BME280;10465;42.686;23.364;2023-01-25T00:49:32;96097.72;;;3.71;83.26
20612;BME280;10465;42.686;23.364;2023-01-25T00:51:58;96032.91;;;3.38;83.29
20612;BME280;10465;42.686;23.364;2023-01-25T00:54:24;96097.94;;;3.82;82.89
20612;BME280;10465;42.686;23.364;2023-01-25T00:56:50;96076.34;;;3.63;82.57
20612;BME280;10465;42.686;23.364;2023-01-25T00:59:20;96084.63;;;3.71;82.44
20612;BME280;10465;42.686;23.364;2023-01-25T01:01:45;96097.44;;;3.85;81.70
20612;BME280;10465;42.686;23.364;2023-01-25T01:04:11;96101.69;;;3.86;81.81
20612;BME280;10465;42.686;23.364;2023-01-25T01:06:38;96094.84;;;3.85;81.83
20612;BME280;10465;42.686;23.364;2023-01-25T01:09:05;96101.34;;;3.82;82.24
20612;BME280;10465;42.686;23.364;2023-01-25T01:11:31;96101.09;;;3.84;82.21
20612;BME280;10465;42.686;23.364;2023-01-25T01:13:58;96091.41;;;3.84;82.68
20612;BME280;10465;42.686;23.364;2023-01-25T01:16:24;96086.53;;;3.88;81.70
20612;BME280;10465;42.686;23.364;2023-01-25T01:18:50;96098.47;;;3.95;82.07
20612;BME280;10465;42.686;23.364;2023-01-25T01:21:15;96095.72;;;4.02;81.70
20612;BME280;10465;42.686;23.364;2023-01-25T01:23:41;96090.81;;;4.06;81.23
20612;BME280;10465;42.686;23.364;2023-01-25T01:26:09;96088.66;;;4.03;81.10
20612;BME280;10465;42.686;23.364;2023-01-25T01:28:35;96083.88;;;4.00;80.53
20612;BME280;10465;42.686;23.364;2023-01-25T01:31:07;96083.06;;;3.99;80.95
20612;BME280;10465;42.686;23.364;2023-01-25T01:33:33;96073.22;;;3.78;81.60
20612;BME280;10465;42.686;23.364;2023-01-25T01:35:58;96068.78;;;3.78;81.81
20612;BME280;10465;42.686;23.364;2023-01-25T01:38:31;96056.41;;;3.62;82.07
20612;BME280;10465;42.686;23.364;2023-01-25T01:40:57;96061.50;;;3.68;82.34
20612;BME280;10465;42.686;23.364;2023-01-25T01:43:23;96070.94;;;3.81;82.41
20612;BME280;10465;42.686;23.364;2023-01-25T01:51:08;96070.50;;;3.72;82.75
20612;BME280;10465;42.686;23.364;2023-01-25T01:53:37;96065.50;;;3.71;83.33
20612;BME280;10465;42.686;23.364;2023-01-25T01:56:10;96053.78;;;3.74;83.04
20612;BME280;10465;42.686;23.364;2023-01-25T01:58:38;96067.50;;;3.81;82.64
20612;BME280;10465;42.686;23.364;2023-01-25T02:01:04;96061.28;;;3.70;82.64
20612;BME280;10465;42.686;23.364;2023-01-25T02:03:30;96066.16;;;3.78;83.01
20612;BME280;10465;42.686;23.364;2023-01-25T02:06:03;96041.84;;;3.66;82.90
20612;BME280;10465;42.686;23.364;2023-01-25T02:08:31;96065.09;;;3.91;83.64
20612;BME280;10465;42.686;23.364;2023-01-25T02:10:59;96061.78;;;3.95;82.65
20612;BME280;10465;42.686;23.364;2023-01-25T02:13:26;96037.13;;;3.80;82.94
20612;BME280;10465;42.686;23.364;2023-01-25T02:15:52;96077.13;;;4.04;82.01
20612;BME280;10465;42.686;23.364;2023-01-25T02:18:20;96049.50;;;3.84;81.19
20612;BME280;10465;42.686;23.364;2023-01-25T02:20:50;96034.97;;;3.77;81.68
20612;BME280;10465;42.686;23.364;2023-01-25T02:26:03;96054.88;;;3.89;81.66
20612;BME280;10465;42.686;23.364;2023-01-25T02:28:35;96056.56;;;3.84;81.84
20612;BME280;10465;42.686;23.364;2023-01-25T02:31:03;95852.13;;;2.47;81.43
20612;BME280;10465;42.686;23.364;2023-01-25T02:33:28;96064.78;;;3.87;81.92
20612;BME280;10465;42.686;23.364;2023-01-25T02:38:34;96042.34;;;3.80;82.19
20612;BME280;10465;42.686;23.364;2023-01-25T02:41:24;96063.28;;;3.91;82.60
20612;BME280;10465;42.686;23.364;2023-01-25T02:43:47;96045.41;;;3.88;82.28
20612;BME280;10465;42.686;23.364;2023-01-25T02:46:22;96053.38;;;3.93;82.00
20612;BME280;10465;42.686;23.364;2023-01-25T02:48:50;96042.34;;;3.80;82.25
20612;BME280;10465;42.686;23.364;2023-01-25T02:51:15;96062.44;;;4.03;82.00
20612;BME280;10465;42.686;23.364;2023-01-25T02:53:41;96060.53;;;3.98;81.84
20612;BME280;10465;42.686;23.364;2023-01-25T02:56:07;96055.09;;;3.88;82.35
20612;BME280;10465;42.686;23.364;2023-01-25T02:58:32;96066.03;;;3.85;83.05
20612;BME280;10465;42.686;23.364;2023-01-25T03:00:58;96046.34;;;3.82;82.68
20612;BME280;10465;42.686;23.364;2023-01-25T03:03:23;96038.09;;;3.62;82.30
20612;BME280;10465;42.686;23.364;2023-01-25T03:05:49;96056.16;;;3.75;83.21
20612;BME280;10465;42.686;23.364;2023-01-25T03:08:14;95988.09;;;3.23;83.48
20612;BME280;10465;42.686;23.364;2023-01-25T03:10:40;96054.50;;;3.57;83.81
20612;BME280;10465;42.686;23.364;2023-01-25T03:13:05;96036.56;;;3.26;83.94
20612;BME280;10465;42.686;23.364;2023-01-25T03:15:31;96034.63;;;3.21;83.64
20612;BME280;10465;42.686;23.364;2023-01-25T03:17:56;96060.00;;;3.09;84.95
20612;BME280;10465;42.686;23.364;2023-01-25T03:20:22;96043.72;;;3.18;84.45
20612;BME280;10465;42.686;23.364;2023-01-25T03:22:48;96059.19;;;3.32;84.54
20612;BME280;10465;42.686;23.364;2023-01-25T03:25:13;96059.88;;;3.39;84.61
20612;BME280;10465;42.686;23.364;2023-01-25T03:27:39;96056.22;;;3.40;84.33
20612;BME280;10465;42.686;23.364;2023-01-25T03:30:05;96046.69;;;3.34;83.85
20612;BME280;10465;42.686;23.364;2023-01-25T03:32:31;96061.44;;;3.40;83.95
20612;BME280;10465;42.686;23.364;2023-01-25T03:34:56;96041.78;;;3.26;84.18
20612;BME280;10465;42.686;23.364;2023-01-25T03:37:23;96062.81;;;3.42;83.86
20612;BME280;10465;42.686;23.364;2023-01-25T03:39:51;96045.75;;;3.40;83.82
20612;BME280;10465;42.686;23.364;2023-01-25T03:42:19;96057.94;;;3.46;83.38
20612;BME280;10465;42.686;23.364;2023-01-25T03:44:44;96033.34;;;3.35;83.48
20612;BME280;10465;42.686;23.364;2023-01-25T03:47:10;96043.47;;;3.43;83.52
20612;BME280;10465;42.686;23.364;2023-01-25T03:49:35;96045.97;;;3.50;83.84
20612;BME280;10465;42.686;23.364;2023-01-25T03:52:01;96054.69;;;3.67;83.84
20612;BME280;10465;42.686;23.364;2023-01-25T03:54:26;96031.94;;;3.56;83.19
20612;BME280;10465;42.686;23.364;2023-01-25T03:56:52;96026.06;;;3.49;82.94
20612;BME280;10465;42.686;23.364;2023-01-25T03:59:17;96047.28;;;3.64;82.39
20612;BME280;10465;42.686;23.364;2023-01-25T04:01:43;96052.53;;;3.64;82.40
20612;BME280;10465;42.686;23.364;2023-01-25T04:04:08;96045.59;;;3.58;82.39
20612;BME280;10465;42.686;23.364;2023-01-25T04:06:33;96022.84;;;3.47;82.43
20612;BME280;10465;42.686;23.364;2023-01-25T04:08:59;96036.16;;;3.57;82.93
20612;BME280;10465;42.686;23.364;2023-01-25T04:11:25;96004.44;;;3.42;82.21
20612;BME280;10465;42.686;23.364;2023-01-25T04:13:50;96012.53;;;3.40;82.73
20612;BME280;10465;42.686;23.364;2023-01-25T04:16:16;96026.06;;;3.49;83.05
20612;BME280;10465;42.686;23.364;2023-01-25T04:18:41;96045.94;;;3.62;82.43
20612;BME280;10465;42.686;23.364;2023-01-25T04:21:06;96045.94;;;3.62;82.21
20612;BME280;10465;42.686;23.364;2023-01-25T04:23:32;96002.06;;;3.40;81.57
20612;BME280;10465;42.686;23.364;2023-01-25T04:26:00;96036.25;;;3.62;82.09
20612;BME280;10465;42.686;23.364;2023-01-25T04:28:26;96043.50;;;3.72;81.33
20612;BME280;10465;42.686;23.364;2023-01-25T04:30:53;96003.50;;;3.48;81.46
20612;BME280;10465;42.686;23.364;2023-01-25T04:33:19;96042.50;;;3.73;81.20
20612;BME280;10465;42.686;23.364;2023-01-25T04:35:46;96036.03;;;3.64;80.48
20612;BME280;10465;42.686;23.364;2023-01-25T04:38:12;96028.53;;;3.56;80.54
20612;BME280;10465;42.686;23.364;2023-01-25T04:40:38;96056.06;;;3.70;80.07
20612;BME280;10465;42.686;23.364;2023-01-25T04:43:03;96032.88;;;3.50;79.92
20612;BME280;10465;42.686;23.364;2023-01-25T04:45:31;96054.84;;;3.61;80.65
20612;BME280;10465;42.686;23.364;2023-01-25T04:47:59;96053.81;;;3.50;80.79
20612;BME280;10465;42.686;23.364;2023-01-25T04:50:25;96062.38;;;3.45;80.88
20612;BME280;10465;42.686;23.364;2023-01-25T04:52:50;96040.19;;;3.36;81.13
20612;BME280;10465;42.686;23.364;2023-01-25T04:55:16;96026.53;;;3.34;80.73
20612;BME280;10465;42.686;23.364;2023-01-25T04:57:42;96044.84;;;3.46;80.56
20612;BME280;10465;42.686;23.364;2023-01-25T05:00:08;96052.34;;;3.54;80.75
20612;BME280;10465;42.686;23.364;2023-01-25T05:02:34;96055.13;;;3.64;80.57
20612;BME280;10465;42.686;23.364;2023-01-25T05:04:59;96052.53;;;3.64;80.56
20612;BME280;10465;42.686;23.364;2023-01-25T05:07:25;96051.97;;;3.62;79.88
20612;BME280;10465;42.686;23.364;2023-01-25T05:09:50;96015.72;;;3.31;79.75
20612;BME280;10465;42.686;23.364;2023-01-25T05:12:16;96049.13;;;3.52;80.04
20612;BME280;10465;42.686;23.364;2023-01-25T05:14:41;96038.22;;;3.55;80.78
20612;BME280;10465;42.686;23.364;2023-01-25T05:17:07;96022.66;;;3.37;80.27
20612;BME280;10465;42.686;23.364;2023-01-25T05:19:33;96038.66;;;3.52;80.40
20612;BME280;10465;42.686;23.364;2023-01-25T05:22:00;96044.03;;;3.57;80.46
20612;BME280;10465;42.686;23.364;2023-01-25T05:24:29;96043.31;;;3.62;80.01
20612;BME280;10465;42.686;23.364;2023-01-25T05:26:55;96043.41;;;3.67;79.54
20612;BME280;10465;42.686;23.364;2023-01-25T05:31:57;96046.16;;;3.60;79.83
20612;BME280;10465;42.686;23.364;2023-01-25T05:34:23;96050.97;;;3.52;79.70
20612;BME280;10465;42.686;23.364;2023-01-25T05:36:48;96043.13;;;3.40;79.77
20612;BME280;10465;42.686;23.364;2023-01-25T05:39:14;96037.00;;;3.34;79.91
20612;BME280;10465;42.686;23.364;2023-01-25T05:41:39;96050.31;;;3.44;80.40
20612;BME280;10465;42.686;23.364;2023-01-25T05:44:05;96048.69;;;3.43;80.14
20612;BME280;10465;42.686;23.364;2023-01-25T05:46:30;96026.78;;;3.33;79.74
20612;BME280;10465;42.686;23.364;2023-01-25T05:48:56;96049.41;;;3.39;79.46
20612;BME280;10465;42.686;23.364;2023-01-25T05:51:21;96060.44;;;3.41;79.42
20612;BME280;10465;42.686;23.364;2023-01-25T05:53:46;96062.03;;;3.42;79.65
20612;BME280;10465;42.686;23.364;2023-01-25T05:56:12;96058.63;;;3.41;79.42
20612;BME280;10465;42.686;23.364;2023-01-25T05:58:37;96043.28;;;3.33;79.51
20612;BME280;10465;42.686;23.364;2023-01-25T06:01:05;96058.59;;;3.53;79.22
20612;BME280;10465;42.686;23.364;2023-01-25T06:03:30;96062.72;;;3.49;79.48
20612;BME280;10465;42.686;23.364;2023-01-25T06:06:00;96061.09;;;3.48;79.41
20612;BME280;10465;42.686;23.364;2023-01-25T06:08:30;96063.84;;;3.53;78.69
20612;BME280;10465;42.686;23.364;2023-01-25T06:10:56;96029.25;;;3.39;80.00
20612;BME280;10465;42.686;23.364;2023-01-25T06:13:21;96061.41;;;3.63;79.27
20612;BME280;10465;42.686;23.364;2023-01-25T06:15:54;96011.06;;;3.33;79.20
20612;BME280;10465;42.686;23.364;2023-01-25T06:18:21;96051.19;;;3.62;78.32
20612;BME280;10465;42.686;23.364;2023-01-25T06:20:46;96054.22;;;3.70;77.11
20612;BME280;10465;42.686;23.364;2023-01-25T06:23:12;96046.16;;;3.60;76.74
20612;BME280;10465;42.686;23.364;2023-01-25T06:25:38;96059.00;;;3.74;76.74
20612;BME280;10465;42.686;23.364;2023-01-25T06:28:03;96007.19;;;3.23;77.09
20612;BME280;10465;42.686;23.364;2023-01-25T06:30:29;96022.09;;;3.35;77.47
20612;BME280;10465;42.686;23.364;2023-01-25T06:32:57;96055.50;;;3.56;77.51
20612;BME280;10465;42.686;23.364;2023-01-25T06:35:22;96068.22;;;3.76;77.80
20612;BME280;10465;42.686;23.364;2023-01-25T06:37:48;96067.75;;;3.79;77.77
20612;BME280;10465;42.686;23.364;2023-01-25T06:40:14;96066.25;;;3.83;77.25
20612;BME280;10465;42.686;23.364;2023-01-25T06:42:39;96065.00;;;3.86;77.46
20612;BME280;10465;42.686;23.364;2023-01-25T06:45:05;96062.72;;;3.89;77.50
20612;BME280;10465;42.686;23.364;2023-01-25T06:47:31;96063.28;;;3.91;77.63
20612;BME280;10465;42.686;23.364;2023-01-25T06:49:57;96038.09;;;3.62;77.33
20612;BME280;10465;42.686;23.364;2023-01-25T06:52:22;96037.84;;;3.63;77.12
20612;BME280;10465;42.686;23.364;2023-01-25T06:54:47;96068.22;;;3.76;77.53
20612;BME280;10465;42.686;23.364;2023-01-25T06:57:13;96018.78;;;3.39;77.93
20612;BME280;10465;42.686;23.364;2023-01-25T06:59:38;96063.25;;;3.63;78.59
20612;BME280;10465;42.686;23.364;2023-01-25T07:02:04;96067.09;;;3.60;77.96
20612;BME280;10465;42.686;23.364;2023-01-25T07:04:30;96068.72;;;3.61;78.00
20612;BME280;10465;42.686;23.364;2023-01-25T07:06:56;96039.19;;;3.26;78.50
20612;BME280;10465;42.686;23.364;2023-01-25T07:09:21;96034.75;;;3.26;78.47
20612;BME280;10465;42.686;23.364;2023-01-25T07:11:51;96056.56;;;3.43;78.45
20612;BME280;10465;42.686;23.364;2023-01-25T07:14:17;96063.16;;;3.58;79.03
20612;BME280;10465;42.686;23.364;2023-01-25T07:16:43;96066.09;;;3.61;78.29
20612;BME280;10465;42.686;23.364;2023-01-25T07:19:10;96054.50;;;3.57;78.39
20612;BME280;10465;42.686;23.364;2023-01-25T07:21:37;96051.88;;;3.57;78.66
20612;BME280;10465;42.686;23.364;2023-01-25T07:24:04;96044.94;;;3.39;78.83
20612;BME280;10465;42.686;23.364;2023-01-25T07:26:30;96061.91;;;3.49;78.63
20612;BME280;10465;42.686;23.364;2023-01-25T07:28:56;96076.69;;;3.55;78.32
20612;BME280;10465;42.686;23.364;2023-01-25T07:31:22;96075.81;;;3.49;78.13
20612;BME280;10465;42.686;23.364;2023-01-25T07:33:52;96079.41;;;3.48;77.40
20612;BME280;10465;42.686;23.364;2023-01-25T07:36:18;96023.84;;;3.06;77.65
20612;BME280;10465;42.686;23.364;2023-01-25T07:38:44;96079.56;;;3.41;77.21
20612;BME280;10465;42.686;23.364;2023-01-25T07:41:10;96076.50;;;3.44;77.73
20612;BME280;10465;42.686;23.364;2023-01-25T07:43:35;96084.22;;;3.51;77.41
20612;BME280;10465;42.686;23.364;2023-01-25T07:46:02;96067.38;;;3.47;77.91
20612;BME280;10465;42.686;23.364;2023-01-25T07:48:28;96084.53;;;3.55;77.68
20612;BME280;10465;42.686;23.364;2023-01-25T07:51:02;96086.81;;;3.51;77.62
20612;BME280;10465;42.686;23.364;2023-01-25T07:53:41;96046.25;;;3.25;77.91
20612;BME280;10465;42.686;23.364;2023-01-25T07:56:07;96086.91;;;3.56;77.79
20612;BME280;10465;42.686;23.364;2023-01-25T07:58:33;96087.06;;;3.50;78.24
20612;BME280;10465;42.686;23.364;2023-01-25T08:01:09;96085.25;;;3.50;77.72
20612;BME280;10465;42.686;23.364;2023-01-25T08:03:35;96054.19;;;3.42;79.80
20612;BME280;10465;42.686;23.364;2023-01-25T08:06:01;96086.22;;;3.72;80.98
20612;BME280;10465;42.686;23.364;2023-01-25T08:08:30;96078.47;;;3.78;79.93
20612;BME280;10465;42.686;23.364;2023-01-25T08:10:58;96060.16;;;3.66;77.86
20612;BME280;10465;42.686;23.364;2023-01-25T08:13:24;96071.34;;;3.50;77.65
20612;BME280;10465;42.686;23.364;2023-01-25T08:15:53;96078.06;;;3.57;78.51
20612;BME280;10465;42.686;23.364;2023-01-25T08:18:19;96078.28;;;3.56;78.71
20612;BME280;10465;42.686;23.364;2023-01-25T08:20:44;96053.84;;;3.38;78.39
20612;BME280;10465;42.686;23.364;2023-01-25T08:23:10;96046.44;;;3.35;79.02
20612;BME280;10465;42.686;23.364;2023-01-25T08:25:35;96073.28;;;3.54;79.15
20612;BME280;10465;42.686;23.364;2023-01-25T08:28:01;96066.13;;;3.50;79.20
20612;BME280;10465;42.686;23.364;2023-01-25T08:30:26;96061.91;;;3.49;78.91
20612;BME280;10465;42.686;23.364;2023-01-25T08:32:52;96059.31;;;3.37;78.78
20612;BME280;10465;42.686;23.364;2023-01-25T08:35:18;96068.84;;;3.43;79.63
20612;BME280;10465;42.686;23.364;2023-01-25T08:37:43;96072.59;;;3.47;80.11
20612;BME280;10465;42.686;23.364;2023-01-25T08:40:09;96077.03;;;3.46;80.19
20612;BME280;10465;42.686;23.364;2023-01-25T08:42:37;96054.50;;;3.45;79.90
20612;BME280;10465;42.686;23.364;2023-01-25T08:45:04;96021.06;;;3.36;80.77
20612;BME280;10465;42.686;23.364;2023-01-25T08:47:29;96069.94;;;3.70;80.57
20612;BME280;10465;42.686;23.364;2023-01-25T08:49:55;96055.34;;;3.75;79.84
20612;BME280;10465;42.686;23.364;2023-01-25T08:52:20;96060.06;;;3.61;80.29
20612;BME280;10465;42.686;23.364;2023-01-25T08:54:46;96030.09;;;3.28;81.06
20612;BME280;10465;42.686;23.364;2023-01-25T08:57:12;96036.91;;;3.29;82.60
20612;BME280;10465;42.686;23.364;2023-01-25T08:59:37;96040.47;;;3.63;85.65
20612;BME280;10465;42.686;23.364;2023-01-25T09:02:03;96057.25;;;3.91;83.62
20612;BME280;10465;42.686;23.364;2023-01-25T09:04:28;96035.97;;;3.87;81.89
20612;BME280;10465;42.686;23.364;2023-01-25T09:06:54;96069.44;;;3.97;80.25
20612;BME280;10465;42.686;23.364;2023-01-25T09:09:20;95979.25;;;3.12;80.50
20612;BME280;10465;42.686;23.364;2023-01-25T09:11:46;96050.53;;;3.43;81.60
20612;BME280;10465;42.686;23.364;2023-01-25T09:14:12;96050.44;;;3.26;83.19
20612;BME280;10465;42.686;23.364;2023-01-25T09:16:38;96058.41;;;3.19;84.68
20612;BME280;10465;42.686;23.364;2023-01-25T09:19:04;96036.78;;;3.24;85.81
20612;BME280;10465;42.686;23.364;2023-01-25T09:21:30;96048.00;;;3.48;85.50
20612;BME280;10465;42.686;23.364;2023-01-25T09:23:56;96047.00;;;3.49;84.40
20612;BME280;10465;42.686;23.364;2023-01-25T09:26:22;96054.50;;;3.45;84.73
20612;BME280;10465;42.686;23.364;2023-01-25T09:28:49;95998.13;;;3.14;85.00
20612;BME280;10465;42.686;23.364;2023-01-25T09:31:15;96019.34;;;3.41;85.54
20612;BME280;10465;42.686;23.364;2023-01-25T09:33:41;96023.09;;;3.45;84.66
20612;BME280;10465;42.686;23.364;2023-01-25T09:36:07;96028.78;;;3.54;84.71
20612;BME280;10465;42.686;23.364;2023-01-25T09:38:33;95980.63;;;3.43;84.08
20612;BME280;10465;42.686;23.364;2023-01-25T09:46:24;95998.66;;;3.68;82.85
20612;BME280;10465;42.686;23.364;2023-01-25T09:55:21;95985.00;;;3.95;80.68
20612;BME280;10465;42.686;23.364;2023-01-25T09:57:50;95983.66;;;3.92;79.46
20612;BME280;10465;42.686;23.364;2023-01-25T10:00:20;95997.47;;;4.05;79.34
20612;BME280;10465;42.686;23.364;2023-01-25T10:02:54;95993.38;;;4.09;78.59
20612;BME280;10465;42.686;23.364;2023-01-25T10:05:26;95980.84;;;4.11;78.16
20612;BME280;10465;42.686;23.364;2023-01-25T10:10:42;95982.50;;;4.17;77.16
20612;BME280;10465;42.686;23.364;2023-01-25T10:13:11;95962.41;;;4.06;75.95
20612;BME280;10465;42.686;23.364;2023-01-25T10:15:49;95943.00;;;3.90;75.74
20612;BME280;10465;42.686;23.364;2023-01-25T10:18:36;95967.66;;;4.06;74.97
20612;BME280;10465;42.686;23.364;2023-01-25T10:21:11;95955.34;;;4.06;75.53
20612;BME280;10465;42.686;23.364;2023-01-25T10:23:48;95951.63;;;4.19;76.08
20612;BME280;10465;42.686;23.364;2023-01-25T10:26:33;95950.75;;;4.30;74.59
20612;BME280;10465;42.686;23.364;2023-01-25T10:29:10;95936.94;;;4.35;73.44
20612;BME280;10465;42.686;23.364;2023-01-25T10:31:51;95952.97;;;4.38;73.45
20612;BME280;10465;42.686;23.364;2023-01-25T10:34:23;95946.03;;;4.49;74.25
20612;BME280;10465;42.686;23.364;2023-01-25T10:36:53;95948.91;;;4.47;73.75
20612;BME280;10465;42.686;23.364;2023-01-25T10:39:20;95930.41;;;4.37;74.30
20612;BME280;10465;42.686;23.364;2023-01-25T10:41:58;95941.53;;;4.44;73.85
20612;BME280;10465;42.686;23.364;2023-01-25T10:44:25;95908.19;;;4.23;73.78
20612;BME280;10465;42.686;23.364;2023-01-25T10:46:59;95933.59;;;4.39;73.87
20612;BME280;10465;42.686;23.364;2023-01-25T10:49:48;95922.31;;;4.39;74.06
20612;BME280;10465;42.686;23.364;2023-01-25T10:52:17;95894.59;;;4.26;74.08
20612;BME280;10465;42.686;23.364;2023-01-25T10:54:44;95920.31;;;4.63;75.39
20612;BME280;10465;42.686;23.364;2023-01-25T10:57:17;95901.63;;;4.59;74.55
20612;BME280;10465;42.686;23.364;2023-01-25T10:59:48;95849.78;;;4.28;72.52
20612;BME280;10465;42.686;23.364;2023-01-25T11:07:43;95907.94;;;4.80;71.62
20612;BME280;10465;42.686;23.364;2023-01-25T11:10:34;95903.31;;;4.87;71.45
20612;BME280;10465;42.686;23.364;2023-01-25T11:15:45;95900.91;;;4.86;71.12
20612;BME280;10465;42.686;23.364;2023-01-25T11:18:26;95905.78;;;4.77;71.19
20612;BME280;10465;42.686;23.364;2023-01-25T11:21:16;95891.09;;;4.76;70.93
20612;BME280;10465;42.686;23.364;2023-01-25T11:26:29;95852.41;;;4.28;72.53
20612;BME280;10465;42.686;23.364;2023-01-25T11:29:10;95886.75;;;4.65;72.87
20612;BME280;10465;42.686;23.364;2023-01-25T11:31:36;95880.13;;;4.79;72.88
20612;BME280;10465;42.686;23.364;2023-01-25T11:34:08;95884.59;;;4.79;72.23
20612;BME280;10465;42.686;23.364;2023-01-25T11:37:10;95882.91;;;4.72;72.17
20612;BME280;10465;42.686;23.364;2023-01-25T11:42:49;95876.34;;;4.70;72.20
20612;BME280;10465;42.686;23.364;2023-01-25T11:50:48;95846.72;;;4.53;72.58
20612;BME280;10465;42.686;23.364;2023-01-25T11:53:28;95852.97;;;4.68;72.44
20612;BME280;10465;42.686;23.364;2023-01-25T11:57:01;95837.66;;;4.60;72.35
20612;BME280;10465;42.686;23.364;2023-01-25T12:02:23;95834.69;;;4.35;73.16
20612;BME280;10465;42.686;23.364;2023-01-25T12:08:30;95837.84;;;4.37;73.50
20612;BME280;10465;42.686;23.364;2023-01-25T12:16:19;95830.94;;;4.47;73.43
20612;BME280;10465;42.686;23.364;2023-01-25T12:29:39;95818.19;;;4.56;71.73
20612;BME280;10465;42.686;23.364;2023-01-25T12:32:25;95812.94;;;4.56;72.45
20612;BME280;10465;42.686;23.364;2023-01-25T12:37:47;95802.75;;;4.60;72.79
20612;BME280;10465;42.686;23.364;2023-01-25T12:40:31;95799.63;;;4.41;72.09
20612;BME280;10465;42.686;23.364;2023-01-25T12:43:00;95813.63;;;4.46;72.99
20612;BME280;10465;42.686;23.364;2023-01-25T12:45:36;95804.56;;;4.37;73.44
20612;BME280;10465;42.686;23.364;2023-01-25T12:50:37;95785.09;;;4.50;72.89
20612;BME280;10465;42.686;23.364;2023-01-25T12:53:20;95802.81;;;4.65;72.59
20612;BME280;10465;42.686;23.364;2023-01-25T12:55:48;95786.97;;;4.55;72.58
20612;BME280;10465;42.686;23.364;2023-01-25T13:01:02;95780.63;;;4.51;71.91
20612;BME280;10465;42.686;23.364;2023-01-25T13:06:55;95761.09;;;4.41;71.91
20612;BME280;10465;42.686;23.364;2023-01-25T13:12:20;95775.56;;;4.44;71.76
20612;BME280;10465;42.686;23.364;2023-01-25T13:14:45;95752.28;;;4.26;71.99
20612;BME280;10465;42.686;23.364;2023-01-25T13:23:02;95740.69;;;4.21;72.42
20612;BME280;10465;42.686;23.364;2023-01-25T13:25:29;95749.47;;;4.32;72.79
20612;BME280;10465;42.686;23.364;2023-01-25T13:31:01;95748.91;;;4.30;72.75
20612;BME280;10465;42.686;23.364;2023-01-25T13:33:31;95781.66;;;4.50;72.35
20612;BME280;10465;42.686;23.364;2023-01-25T13:37:12;95773.78;;;4.50;71.46
20612;BME280;10465;42.686;23.364;2023-01-25T13:42:03;95782.88;;;4.42;72.44
20612;BME280;10465;42.686;23.364;2023-01-25T13:44:31;95780.19;;;4.37;72.91
20612;BME280;10465;42.686;23.364;2023-01-25T13:47:00;95790.03;;;4.46;72.97
20612;BME280;10465;42.686;23.364;2023-01-25T13:52:22;95792.91;;;4.28;74.38
20612;BME280;10465;42.686;23.364;2023-01-25T13:54:49;95789.09;;;4.36;74.40
20612;BME280;10465;42.686;23.364;2023-01-25T13:57:24;95786.84;;;4.44;74.27
20612;BME280;10465;42.686;23.364;2023-01-25T14:00:06;95788.25;;;4.52;74.16
20612;BME280;10465;42.686;23.364;2023-01-25T14:02:35;95775.50;;;4.39;73.73
20612;BME280;10465;42.686;23.364;2023-01-25T14:05:02;95785.19;;;4.38;73.94
20612;BME280;10465;42.686;23.364;2023-01-25T14:07:32;95781.53;;;4.17;75.03
20612;BME280;10465;42.686;23.364;2023-01-25T14:10:07;95785.88;;;4.12;75.19
20612;BME280;10465;42.686;23.364;2023-01-25T14:12:39;95789.69;;;4.04;75.22
20612;BME280;10465;42.686;23.364;2023-01-25T14:15:29;95754.88;;;3.87;75.53
20612;BME280;10465;42.686;23.364;2023-01-25T14:18:16;95787.59;;;4.01;75.41
20612;BME280;10465;42.686;23.364;2023-01-25T14:20:45;95781.81;;;3.82;75.68
20612;BME280;10465;42.686;23.364;2023-01-25T14:23:27;95786.31;;;3.70;76.90
20612;BME280;10465;42.686;23.364;2023-01-25T14:25:54;95778.31;;;3.60;76.74
20612;BME280;10465;42.686;23.364;2023-01-25T14:28:22;95763.22;;;3.50;77.48
20612;BME280;10465;42.686;23.364;2023-01-25T14:30:55;95774.88;;;3.59;77.40
20612;BME280;10465;42.686;23.364;2023-01-25T14:33:29;95774.50;;;3.51;77.74
20612;BME280;10465;42.686;23.364;2023-01-25T14:36:07;95770.06;;;3.51;77.66
20612;BME280;10465;42.686;23.364;2023-01-25T14:38:35;95734.44;;;3.16;78.58
20612;BME280;10465;42.686;23.364;2023-01-25T14:41:28;95763.16;;;3.28;79.72
20612;BME280;10465;42.686;23.364;2023-01-25T14:43:56;95739.81;;;3.10;79.65
20612;BME280;10465;42.686;23.364;2023-01-25T14:46:25;95759.16;;;3.26;80.04
20612;BME280;10465;42.686;23.364;2023-01-25T14:48:51;95758.59;;;3.23;80.12